Time;durP1;ratioP1;P1;durP2;ratioP2;P2;SDS_P1;SDS_P2;PMS_P1;PMS_P2;Temp;Humidity;BMP_temperature;BMP_pressure;BME280_temperature;BME280_humidity;BME280_pressure;Samples;Min_cycle;Max_cycle;Signal;HPM_P1;HPM_P2
2021/10/23 00:03:31;;;;;;;8.45;5.90;;;;;;;;;;5010107;23;20312;-63
2021/10/23 00:05:56;;;;;;;6.55;4.55;;;;;;;;;;4997108;28;20483;-63
2021/10/23 00:08:21;;;;;;;11.55;9.88;;;;;;;;;;5006679;28;20021;-63
2021/10/23 00:10:47;;;;;;;11.60;9.57;;;;;;;;;;5006594;28;20397;-63
2021/10/23 00:13:12;;;;;;;6.55;4.38;;;;;;;;;;5005318;28;20595;-63
2021/10/23 00:15:37;;;;;;;6.23;4.20;;;;;;;;;;5006351;28;20037;-64
2021/10/23 00:18:02;;;;;;;7.13;4.53;;;;;;;;;;5006500;28;20025;-63
2021/10/23 00:20:28;;;;;;;6.20;4.47;;;;;;;;;;5006474;28;20080;-63
2021/10/23 00:22:53;;;;;;;7.63;5.00;;;;;;;;;;5006198;28;20269;-64
2021/10/23 00:25:21;;;;;;;7.33;4.63;;;;;;;;;;5006308;28;20655;-63
2021/10/23 00:27:46;;;;;;;6.93;4.60;;;;;;;;;;5006443;28;20265;-63
2021/10/23 00:30:11;;;;;;;6.03;4.45;;;;;;;;;;5006497;28;20083;-64
2021/10/23 00:32:37;;;;;;;9.13;5.70;;;;;;;;;;5004746;28;20571;-63
2021/10/23 00:35:03;;;;;;;6.95;4.65;;;;;;;;;;5006289;28;20088;-63
2021/10/23 00:37:28;;;;;;;7.18;4.65;;;;;;;;;;5006072;28;20385;-64
2021/10/23 00:39:54;;;;;;;6.50;4.37;;;;;;;;;;5006277;28;20022;-63
2021/10/23 00:42:19;;;;;;;7.40;4.85;;;;;;;;;;5005945;28;20257;-63
2021/10/23 00:44:45;;;;;;;8.10;4.70;;;;;;;;;;5006428;28;20026;-63
2021/10/23 00:47:14;;;;;;;6.53;4.68;;;;;;;;;;5005649;28;20061;-63
2021/10/23 00:49:39;;;;;;;6.43;4.60;;;;;;;;;;5004543;28;20088;-63
2021/10/23 00:52:05;;;;;;;6.38;4.70;;;;;;;;;;5005638;28;20228;-63
2021/10/23 00:54:30;;;;;;;6.38;4.05;;;;;;;;;;5005736;28;20411;-63
2021/10/23 00:56:55;;;;;;;7.28;4.57;;;;;;;;;;5005590;28;20026;-63
2021/10/23 00:59:21;;;;;;;6.25;4.60;;;;;;;;;;5005849;28;20069;-63
2021/10/23 01:01:46;;;;;;;7.70;4.72;;;;;;;;;;5005798;28;20026;-63
2021/10/23 01:04:12;;;;;;;8.07;4.97;;;;;;;;;;4995367;28;20177;-63
2021/10/23 01:06:37;;;;;;;6.25;4.63;;;;;;;;;;5001763;28;20030;-64
2021/10/23 01:09:03;;;;;;;7.13;4.63;;;;;;;;;;5005743;28;20551;-63
2021/10/23 01:11:28;;;;;;;12.65;10.57;;;;;;;;;;5004468;28;20048;-63
2021/10/23 01:13:53;;;;;;;7.22;5.03;;;;;;;;;;5006104;28;20112;-63
2021/10/23 01:16:19;;;;;;;6.30;4.70;;;;;;;;;;5005387;28;20547;-63
2021/10/23 01:18:44;;;;;;;6.67;4.70;;;;;;;;;;5005883;28;20335;-63
2021/10/23 01:21:09;;;;;;;6.93;4.60;;;;;;;;;;5005268;28;20113;-63
2021/10/23 01:23:35;;;;;;;6.53;4.93;;;;;;;;;;5005275;28;20045;-64
2021/10/23 01:26:00;;;;;;;6.45;4.50;;;;;;;;;;5005311;28;20548;-64
2021/10/23 01:28:25;;;;;;;7.50;4.97;;;;;;;;;;5005282;28;20032;-63
2021/10/23 01:30:53;;;;;;;6.77;4.97;;;;;;;;;;5005129;28;20029;-64
2021/10/23 01:33:18;;;;;;;7.00;4.95;;;;;;;;;;5005209;28;20932;-63
2021/10/23 01:35:44;;;;;;;6.32;4.68;;;;;;;;;;5002202;28;20026;-63
2021/10/23 01:38:09;;;;;;;6.63;4.63;;;;;;;;;;4993722;28;20034;-63
2021/10/23 01:40:34;;;;;;;7.10;4.93;;;;;;;;;;5005375;28;20253;-63
2021/10/23 01:43:00;;;;;;;7.47;4.78;;;;;;;;;;5005078;28;20393;-63
2021/10/23 01:45:25;;;;;;;7.57;5.43;;;;;;;;;;5005185;28;20586;-63
2021/10/23 01:47:50;;;;;;;6.83;4.90;;;;;;;;;;5005009;28;20652;-63
2021/10/23 01:50:16;;;;;;;6.90;4.40;;;;;;;;;;5005176;28;20348;-63
2021/10/23 01:52:42;;;;;;;6.32;4.40;;;;;;;;;;5004719;28;20380;-63
2021/10/23 01:55:07;;;;;;;8.47;5.03;;;;;;;;;;5004622;28;20869;-63
2021/10/23 01:57:33;;;;;;;8.02;4.75;;;;;;;;;;5004812;28;20265;-63
2021/10/23 01:59:58;;;;;;;6.38;4.32;;;;;;;;;;5005152;28;20025;-63
2021/10/23 02:02:23;;;;;;;7.17;4.90;;;;;;;;;;5002266;28;20676;-63
2021/10/23 02:04:49;;;;;;;6.50;4.68;;;;;;;;;;4992296;28;20284;-63
2021/10/23 02:07:14;;;;;;;6.80;4.60;;;;;;;;;;5004850;28;20057;-63
2021/10/23 02:09:39;;;;;;;6.37;4.87;;;;;;;;;;5006936;28;20033;-64
2021/10/23 02:12:05;;;;;;;7.83;4.93;;;;;;;;;;5004929;28;20047;-63
2021/10/23 02:14:30;;;;;;;7.63;4.97;;;;;;;;;;5004789;28;20018;-64
2021/10/23 02:16:55;;;;;;;7.10;4.53;;;;;;;;;;5004782;28;20014;-64
2021/10/23 02:19:21;;;;;;;7.90;4.43;;;;;;;;;;5004872;28;20655;-64
2021/10/23 02:21:46;;;;;;;6.85;4.72;;;;;;;;;;5004741;28;20309;-64
2021/10/23 02:24:11;;;;;;;7.47;4.83;;;;;;;;;;5004778;28;20018;-64
2021/10/23 02:26:36;;;;;;;8.07;4.90;;;;;;;;;;5004772;28;20265;-64
2021/10/23 02:29:02;;;;;;;5.75;4.65;;;;;;;;;;5004630;28;20022;-64
2021/10/23 02:31:27;;;;;;;7.03;4.97;;;;;;;;;;5004554;28;20057;-64
2021/10/23 02:33:52;;;;;;;6.40;4.50;;;;;;;;;;5004511;28;20270;-64
2021/10/23 02:36:18;;;;;;;7.15;4.70;;;;;;;;;;5004914;28;20033;-64
2021/10/23 02:38:43;;;;;;;28.98;26.00;;;;;;;;;;5004713;28;20448;-64
2021/10/23 02:41:08;;;;;;;5.95;4.28;;;;;;;;;;5004566;28;20081;-64
2021/10/23 02:43:34;;;;;;;7.67;4.60;;;;;;;;;;5004268;28;20025;-64
2021/10/23 02:45:59;;;;;;;6.95;4.60;;;;;;;;;;5004496;28;20030;-64
2021/10/23 02:48:24;;;;;;;6.70;4.90;;;;;;;;;;5004488;28;20030;-64
2021/10/23 02:50:49;;;;;;;7.33;4.70;;;;;;;;;;5005816;28;20169;-64
2021/10/23 02:53:15;;;;;;;6.60;4.82;;;;;;;;;;5008052;28;20117;-64
2021/10/23 02:55:40;;;;;;;7.20;5.10;;;;;;;;;;5008246;28;20026;-64
2021/10/23 02:58:06;;;;;;;7.83;4.73;;;;;;;;;;5007837;28;20095;-64
2021/10/23 03:00:31;;;;;;;18.50;16.27;;;;;;;;;;5008009;28;20076;-64
2021/10/23 03:02:56;;;;;;;9.47;4.83;;;;;;;;;;5003467;28;20061;-64
2021/10/23 03:05:21;;;;;;;7.17;4.77;;;;;;;;;;4997795;28;20021;-64
2021/10/23 03:07:47;;;;;;;8.05;4.70;;;;;;;;;;5007805;28;20268;-63
2021/10/23 03:10:12;;;;;;;7.35;4.60;;;;;;;;;;5006483;28;20032;-63
2021/10/23 03:12:37;;;;;;;6.70;4.88;;;;;;;;;;5007547;28;20775;-63
2021/10/23 03:15:03;;;;;;;7.20;4.40;;;;;;;;;;5007863;28;20053;-63
2021/10/23 03:17:28;;;;;;;6.13;4.72;;;;;;;;;;5007657;28;20351;-63
2021/10/23 03:19:53;;;;;;;6.43;4.83;;;;;;;;;;5006922;28;20099;-63
2021/10/23 03:22:19;;;;;;;7.72;4.97;;;;;;;;;;4992810;28;20073;-63
2021/10/23 03:24:44;;;;;;;6.40;4.78;;;;;;;;;;4968896;28;20022;-63
2021/10/23 03:27:09;;;;;;;11.33;6.17;;;;;;;;;;4968370;28;20022;-63
2021/10/23 03:29:34;;;;;;;7.27;4.87;;;;;;;;;;4993260;28;20517;-64
2021/10/23 03:32:00;;;;;;;7.20;5.03;;;;;;;;;;5006175;28;20280;-64
2021/10/23 03:34:25;;;;;;;6.70;4.63;;;;;;;;;;5003606;28;20273;-64
2021/10/23 03:36:50;;;;;;;6.95;4.68;;;;;;;;;;5006617;28;20771;-63
2021/10/23 03:39:15;;;;;;;6.95;4.82;;;;;;;;;;4989234;28;20026;-64
2021/10/23 03:41:41;;;;;;;8.38;6.18;;;;;;;;;;4999945;28;20018;-64
2021/10/23 03:44:07;;;;;;;7.28;4.53;;;;;;;;;;5007332;28;20075;-64
2021/10/23 03:46:32;;;;;;;6.35;4.28;;;;;;;;;;4997152;28;20125;-64
2021/10/23 03:48:57;;;;;;;6.20;4.50;;;;;;;;;;5005548;28;20030;-64
2021/10/23 03:51:22;;;;;;;5.88;4.38;;;;;;;;;;5006715;28;20336;-63
2021/10/23 03:53:48;;;;;;;7.38;4.82;;;;;;;;;;5007149;28;20487;-64
2021/10/23 03:56:13;;;;;;;7.53;4.80;;;;;;;;;;5007061;28;20067;-64
2021/10/23 03:58:38;;;;;;;6.80;5.00;;;;;;;;;;5001150;28;20033;-64
2021/10/23 04:01:03;;;;;;;6.90;4.93;;;;;;;;;;4990785;28;20030;-64
2021/10/23 04:03:29;;;;;;;7.60;5.18;;;;;;;;;;4995084;28;20062;-64
2021/10/23 04:05:54;;;;;;;6.27;4.77;;;;;;;;;;4993750;28;20420;-64
2021/10/23 04:08:19;;;;;;;7.57;4.57;;;;;;;;;;4995280;28;20420;-64
2021/10/23 04:10:45;;;;;;;7.90;4.70;;;;;;;;;;4986937;28;20621;-64
2021/10/23 04:13:11;;;;;;;6.15;4.50;;;;;;;;;;5001981;28;20049;-64
2021/10/23 04:15:36;;;;;;;7.00;4.72;;;;;;;;;;5006614;28;20112;-64
2021/10/23 04:18:02;;;;;;;7.90;4.63;;;;;;;;;;5004328;28;20021;-64
2021/10/23 04:20:27;;;;;;;7.47;5.13;;;;;;;;;;4999522;28;20136;-64
2021/10/23 04:22:52;;;;;;;6.70;4.50;;;;;;;;;;5001765;28;20036;-64
2021/10/23 04:25:18;;;;;;;8.47;5.87;;;;;;;;;;5006538;28;20022;-64
2021/10/23 04:27:43;;;;;;;7.05;4.88;;;;;;;;;;4988182;28;20029;-64
2021/10/23 04:30:08;;;;;;;6.82;4.72;;;;;;;;;;4986552;28;20057;-63
2021/10/23 04:32:34;;;;;;;7.20;5.20;;;;;;;;;;4991046;28;20026;-64
2021/10/23 04:35:00;;;;;;;40.57;34.53;;;;;;;;;;4986600;28;20550;-64
2021/10/23 04:37:25;;;;;;;7.05;4.72;;;;;;;;;;4986814;28;20345;-64
2021/10/23 04:39:51;;;;;;;7.53;4.72;;;;;;;;;;5004339;28;20137;-64
2021/10/23 04:42:16;;;;;;;6.53;4.60;;;;;;;;;;5006390;28;20030;-64
2021/10/23 04:44:41;;;;;;;6.72;4.93;;;;;;;;;;5006017;28;20033;-64
2021/10/23 04:47:06;;;;;;;6.07;4.60;;;;;;;;;;5006046;28;20029;-64
2021/10/23 04:49:32;;;;;;;6.70;4.85;;;;;;;;;;5005615;28;20817;-64
2021/10/23 04:51:57;;;;;;;113.95;81.05;;;;;;;;;;5005757;28;20105;-64
2021/10/23 04:54:22;;;;;;;6.90;4.67;;;;;;;;;;5006071;28;20112;-64
2021/10/23 04:56:48;;;;;;;6.40;4.47;;;;;;;;;;5006969;28;20086;-64
2021/10/23 04:59:13;;;;;;;7.15;5.03;;;;;;;;;;5016639;28;20256;-64
2021/10/23 05:01:38;;;;;;;6.67;4.80;;;;;;;;;;5017255;28;20045;-63
2021/10/23 05:04:03;;;;;;;8.27;5.07;;;;;;;;;;5008804;28;20324;-63
2021/10/23 05:06:29;;;;;;;7.28;4.45;;;;;;;;;;5003074;28;20276;-63
2021/10/23 05:08:54;;;;;;;7.47;4.70;;;;;;;;;;4985887;28;20030;-64
2021/10/23 05:11:19;;;;;;;5.25;4.28;;;;;;;;;;4985782;28;20273;-64
2021/10/23 05:13:44;;;;;;;7.75;5.00;;;;;;;;;;4996752;28;20057;-64
2021/10/23 05:16:10;;;;;;;7.53;5.07;;;;;;;;;;5005439;28;20057;-64
2021/10/23 05:18:35;;;;;;;7.60;4.77;;;;;;;;;;5005317;28;20256;-64
2021/10/23 05:21:01;;;;;;;7.93;5.07;;;;;;;;;;5003850;28;20271;-64
2021/10/23 05:23:26;;;;;;;8.18;5.10;;;;;;;;;;5003316;28;20021;-64
2021/10/23 05:25:51;;;;;;;6.80;4.60;;;;;;;;;;5005413;28;20177;-64
2021/10/23 05:28:17;;;;;;;6.43;4.95;;;;;;;;;;4988225;28;20265;-64
2021/10/23 05:30:42;;;;;;;5.60;4.33;;;;;;;;;;4985609;28;20022;-64
2021/10/23 05:33:08;;;;;;;7.68;4.93;;;;;;;;;;5000600;28;20308;-64
2021/10/23 05:35:34;;;;;;;6.72;4.97;;;;;;;;;;5003935;28;20049;-64
2021/10/23 05:37:59;;;;;;;6.60;4.80;;;;;;;;;;4979875;28;20025;-64
2021/10/23 05:40:24;;;;;;;7.30;4.90;;;;;;;;;;4977355;28;20030;-63
2021/10/23 05:42:50;;;;;;;6.97;4.80;;;;;;;;;;4979453;28;20285;-64
2021/10/23 05:45:15;;;;;;;6.38;4.32;;;;;;;;;;4984848;28;20076;-63
2021/10/23 05:47:40;;;;;;;6.95;4.32;;;;;;;;;;4985224;28;20100;-62
2021/10/23 05:50:07;;;;;;;6.20;4.63;;;;;;;;;;4986565;28;20030;-62
2021/10/23 05:52:33;;;;;;;7.28;4.40;;;;;;;;;;5002238;28;20509;-61
2021/10/23 05:54:58;;;;;;;6.35;4.43;;;;;;;;;;4984316;28;20021;-62
2021/10/23 05:57:23;;;;;;;10.23;9.23;;;;;;;;;;4984440;28;20120;-62
2021/10/23 05:59:49;;;;;;;8.32;4.65;;;;;;;;;;4983301;28;20026;-62
2021/10/23 06:02:24;;;;;;;6.55;4.63;;;;;;;;;;4988782;28;20102;-62
2021/10/23 06:04:50;;;;;;;6.85;4.40;;;;;;;;;;4984763;28;20038;-62
2021/10/23 06:07:15;;;;;;;9.18;8.18;;;;;;;;;;4983895;28;20641;-62
2021/10/23 06:09:41;;;;;;;6.35;3.90;;;;;;;;;;4981737;28;20045;-62
2021/10/23 06:12:07;;;;;;;5.50;4.13;;;;;;;;;;4982698;28;20100;-61
2021/10/23 06:14:32;;;;;;;6.63;4.40;;;;;;;;;;4981499;28;20068;-61
2021/10/23 06:16:57;;;;;;;6.70;4.40;;;;;;;;;;4983067;28;20053;-62
2021/10/23 06:19:22;;;;;;;7.30;4.83;;;;;;;;;;4982447;28;20026;-62
2021/10/23 06:21:48;;;;;;;6.07;3.97;;;;;;;;;;4983130;28;20014;-61
2021/10/23 06:24:13;;;;;;;6.30;4.50;;;;;;;;;;4985595;28;20119;-61
2021/10/23 06:26:38;;;;;;;6.47;4.37;;;;;;;;;;4986334;28;20993;-62
2021/10/23 06:29:03;;;;;;;6.50;4.00;;;;;;;;;;4985510;28;20721;-62
2021/10/23 06:31:29;;;;;;;6.47;4.47;;;;;;;;;;4989441;28;20477;-62
2021/10/23 06:33:54;;;;;;;7.50;4.50;;;;;;;;;;4984634;28;20100;-63
2021/10/23 06:36:19;;;;;;;4.93;3.73;;;;;;;;;;4987120;28;20061;-63
2021/10/23 06:38:44;;;;;;;5.43;3.93;;;;;;;;;;4984212;28;20064;-62
2021/10/23 06:41:10;;;;;;;5.97;4.40;;;;;;;;;;4989701;28;20304;-63
2021/10/23 06:43:35;;;;;;;6.57;4.43;;;;;;;;;;4987124;28;20026;-67
2021/10/23 06:46:00;;;;;;;6.53;4.40;;;;;;;;;;5007342;28;20738;-62
2021/10/23 06:48:25;;;;;;;7.20;4.43;;;;;;;;;;4986290;28;20748;-62
2021/10/23 06:50:51;;;;;;;6.85;4.28;;;;;;;;;;4986331;28;20317;-62
2021/10/23 06:53:16;;;;;;;6.00;3.80;;;;;;;;;;4987095;28;20025;-62
2021/10/23 06:55:41;;;;;;;6.35;4.30;;;;;;;;;;4987407;28;20031;-63
2021/10/23 06:58:07;;;;;;;5.43;3.80;;;;;;;;;;4985222;28;20021;-63
2021/10/23 07:00:32;;;;;;;7.82;4.43;;;;;;;;;;4986552;28;20022;-62
2021/10/23 07:02:57;;;;;;;6.30;4.80;;;;;;;;;;4986020;28;20200;-63
2021/10/23 07:05:23;;;;;;;11.43;7.23;;;;;;;;;;4985284;28;20045;-63
2021/10/23 07:07:48;;;;;;;9.15;5.28;;;;;;;;;;4986557;28;20053;-62
2021/10/23 07:10:14;;;;;;;6.57;4.30;;;;;;;;;;4986256;28;20521;-63
2021/10/23 07:12:39;;;;;;;7.30;4.77;;;;;;;;;;4985919;28;20401;-62
2021/10/23 07:15:05;;;;;;;7.07;4.35;;;;;;;;;;4975963;28;20269;-63
2021/10/23 07:17:30;;;;;;;9.13;4.32;;;;;;;;;;4987170;28;20040;-62
2021/10/23 07:19:55;;;;;;;6.82;4.50;;;;;;;;;;4975734;28;20503;-62
2021/10/23 07:22:21;;;;;;;7.13;4.72;;;;;;;;;;4977075;28;20057;-62
2021/10/23 07:24:46;;;;;;;6.13;4.45;;;;;;;;;;4971949;28;20037;-63
2021/10/23 07:27:11;;;;;;;8.82;4.32;;;;;;;;;;4977323;28;20061;-62
2021/10/23 07:29:37;;;;;;;7.97;4.60;;;;;;;;;;4972326;28;20057;-63
2021/10/23 07:32:02;;;;;;;6.55;4.55;;;;;;;;;;4978067;28;20070;-63
2021/10/23 07:34:27;;;;;;;5.18;3.97;;;;;;;;;;4971300;28;20018;-63
2021/10/23 07:36:53;;;;;;;7.45;4.63;;;;;;;;;;4979936;28;20078;-63
2021/10/23 07:39:18;;;;;;;8.40;4.67;;;;;;;;;;4992349;28;20030;-64
2021/10/23 07:41:44;;;;;;;7.27;4.30;;;;;;;;;;4982711;28;20034;-64
2021/10/23 07:44:09;;;;;;;8.70;5.50;;;;;;;;;;4968829;28;20023;-64
2021/10/23 07:46:34;;;;;;;26.60;24.40;;;;;;;;;;4985986;28;20026;-64
2021/10/23 07:49:00;;;;;;;37.88;34.50;;;;;;;;;;4982074;28;20022;-64
2021/10/23 07:51:25;;;;;;;32.38;29.52;;;;;;;;;;4978656;28;20460;-62
2021/10/23 07:53:51;;;;;;;82.93;64.17;;;;;;;;;;4985089;28;20011;-63
2021/10/23 07:56:16;;;;;;;120.13;83.80;;;;;;;;;;4985171;28;20359;-63
2021/10/23 07:58:41;;;;;;;15.43;13.97;;;;;;;;;;4984554;28;20419;-63
2021/10/23 08:01:06;;;;;;;21.20;19.50;;;;;;;;;;4985743;28;20484;-64
2021/10/23 08:03:32;;;;;;;54.27;48.67;;;;;;;;;;4986029;28;20101;-65
2021/10/23 08:05:57;;;;;;;71.40;61.50;;;;;;;;;;4952965;28;20401;-67
2021/10/23 08:08:22;;;;;;;54.70;49.07;;;;;;;;;;4966405;28;20030;-66
2021/10/23 08:10:47;;;;;;;215.77;124.20;;;;;;;;;;4966667;28;20030;-64
2021/10/23 08:13:12;;;;;;;58.87;52.57;;;;;;;;;;4964735;28;20294;-64
2021/10/23 08:15:38;;;;;;;57.63;51.45;;;;;;;;;;4966701;28;20035;-65
2021/10/23 08:18:03;;;;;;;6.80;4.80;;;;;;;;;;4966898;28;20023;-63
2021/10/23 08:20:32;;;;;;;7.57;4.90;;;;;;;;;;4965963;28;20034;-64
2021/10/23 08:22:57;;;;;;;21.92;18.20;;;;;;;;;;4966143;28;20855;-63
2021/10/23 08:25:22;;;;;;;20.83;19.23;;;;;;;;;;4966655;28;20121;-63
2021/10/23 08:27:47;;;;;;;242.55;136.90;;;;;;;;;;4966287;28;21078;-63
2021/10/23 08:30:16;;;;;;;7.13;5.10;;;;;;;;;;4965598;28;20033;-64
2021/10/23 08:32:42;;;;;;;9.88;8.98;;;;;;;;;;4966334;28;20923;-64
2021/10/23 08:35:08;;;;;;;7.93;6.53;;;;;;;;;;4965096;28;20154;-64
2021/10/23 08:37:33;;;;;;;7.00;5.05;;;;;;;;;;4966880;28;20069;-64
2021/10/23 08:39:59;;;;;;;7.77;5.70;;;;;;;;;;4966161;28;20042;-64
2021/10/23 08:42:24;;;;;;;28.80;26.23;;;;;;;;;;4966210;28;20094;-64
2021/10/23 08:44:49;;;;;;;33.20;30.23;;;;;;;;;;4981358;28;20061;-64
2021/10/23 08:47:15;;;;;;;8.47;5.37;;;;;;;;;;4965219;28;20093;-64
2021/10/23 08:49:41;;;;;;;7.40;4.82;;;;;;;;;;4965688;28;20019;-65
2021/10/23 08:52:06;;;;;;;8.40;5.10;;;;;;;;;;4966553;28;20026;-66
2021/10/23 08:54:32;;;;;;;7.68;5.40;;;;;;;;;;4965371;28;20442;-64
2021/10/23 08:56:59;;;;;;;8.95;5.03;;;;;;;;;;4961772;28;20552;-68
2021/10/23 08:59:24;;;;;;;13.40;7.32;;;;;;;;;;4966509;28;20113;-80
2021/10/23 09:01:49;;;;;;;11.33;6.20;;;;;;;;;;4969340;28;20659;-71
2021/10/23 09:04:14;;;;;;;12.45;10.85;;;;;;;;;;4965117;28;20122;-71
2021/10/23 09:06:40;;;;;;;38.70;35.07;;;;;;;;;;4966222;28;20581;-70
2021/10/23 09:09:09;;;;;;;155.97;100.57;;;;;;;;;;4965772;28;20658;-69
2021/10/23 09:11:38;;;;;;;7.32;4.70;;;;;;;;;;4965731;28;20039;-70
2021/10/23 09:14:22;;;;;;;7.45;4.75;;;;;;;;;;4964453;28;20054;-69
2021/10/23 09:16:47;;;;;;;9.25;6.15;;;;;;;;;;4966449;28;20011;-68
2021/10/23 09:19:13;;;;;;;8.88;5.57;;;;;;;;;;4965529;28;20031;-71
2021/10/23 09:21:38;;;;;;;8.05;5.20;;;;;;;;;;4965605;28;20165;-72
2021/10/23 09:24:22;;;;;;;9.77;7.68;;;;;;;;;;4965217;28;20488;-73
2021/10/23 09:26:47;;;;;;;8.60;7.40;;;;;;;;;;4965105;28;20049;-72
2021/10/23 09:29:19;;;;;;;101.82;74.93;;;;;;;;;;4965123;28;20082;-72
2021/10/23 09:31:46;;;;;;;7.75;5.97;;;;;;;;;;4963996;28;20065;-72
2021/10/23 09:34:11;;;;;;;9.13;5.35;;;;;;;;;;4964449;28;20022;-70
2021/10/23 09:36:48;;;;;;;8.18;4.95;;;;;;;;;;4980039;28;20015;-70
2021/10/23 09:39:23;;;;;;;7.97;4.93;;;;;;;;;;4965024;28;20011;-72
2021/10/23 09:42:20;;;;;;;7.55;4.63;;;;;;;;;;4963570;28;20165;-71
2021/10/23 09:45:00;;;;;;;8.07;4.65;;;;;;;;;;4936148;28;20035;-71
2021/10/23 09:47:25;;;;;;;8.68;5.53;;;;;;;;;;4964999;28;20030;-68
2021/10/23 09:50:07;;;;;;;55.67;38.42;;;;;;;;;;4965072;28;20524;-67
2021/10/23 09:52:32;;;;;;;12.40;11.10;;;;;;;;;;4956782;28;20089;-71
2021/10/23 09:55:07;;;;;;;9.15;5.03;;;;;;;;;;4964485;28;20035;-70
2021/10/23 09:57:33;;;;;;;12.75;11.35;;;;;;;;;;4965228;28;20034;-71
2021/10/23 10:00:08;;;;;;;8.60;6.07;;;;;;;;;;4966866;28;20031;-72
2021/10/23 10:02:35;;;;;;;7.40;5.57;;;;;;;;;;4966891;28;20465;-71
2021/10/23 10:05:01;;;;;;;9.45;8.43;;;;;;;;;;4968699;28;20030;-71
2021/10/23 10:07:26;;;;;;;14.48;13.23;;;;;;;;;;4974482;28;20046;-70
2021/10/23 10:09:51;;;;;;;18.75;17.25;;;;;;;;;;4969182;28;20022;-67
2021/10/23 10:12:17;;;;;;;131.90;85.87;;;;;;;;;;4978555;28;20062;-67
2021/10/23 10:14:42;;;;;;;13.90;6.93;;;;;;;;;;4968823;28;20520;-68
2021/10/23 10:17:07;;;;;;;9.48;5.38;;;;;;;;;;4968765;28;20266;-67
2021/10/23 10:19:32;;;;;;;7.07;4.80;;;;;;;;;;4968099;28;20050;-67
2021/10/23 10:22:08;;;;;;;8.50;6.70;;;;;;;;;;4968629;28;20274;-66
2021/10/23 10:24:34;;;;;;;176.23;106.53;;;;;;;;;;4982997;28;20274;-67
2021/10/23 10:27:11;;;;;;;8.32;5.13;;;;;;;;;;4968302;28;20022;-67
2021/10/23 10:29:43;;;;;;;7.13;5.45;;;;;;;;;;4966177;28;20148;-65
2021/10/23 10:32:23;;;;;;;7.85;5.28;;;;;;;;;;4967694;28;20630;-64
2021/10/23 10:37:45;;;;;;;;;;;;;;;;;;4961412;28;20037;-64
2021/10/23 10:43:05;;;;;;;8.63;5.13;;;;;;;;;;4967376;28;20114;-67
2021/10/23 10:45:33;;;;;;;9.80;5.38;;;;;;;;;;4967440;28;20037;-68
2021/10/23 10:48:09;;;;;;;11.57;5.78;;;;;;;;;;4968377;28;20045;-67
2021/10/23 10:50:34;;;;;;;9.07;6.45;;;;;;;;;;4966601;28;20636;-68
2021/10/23 10:53:08;;;;;;;24.35;22.05;;;;;;;;;;4968038;28;20058;-67
2021/10/23 10:55:36;;;;;;;9.25;5.75;;;;;;;;;;4963391;28;20027;-69
2021/10/23 10:58:03;;;;;;;8.70;5.40;;;;;;;;;;4967836;28;20155;-68
2021/10/23 11:00:48;;;;;;;7.72;5.15;;;;;;;;;;4967415;28;20486;-68
2021/10/23 11:03:32;;;;;;;7.97;5.15;;;;;;;;;;4965738;28;20054;-68
2021/10/23 11:06:16;;;;;;;7.82;5.32;;;;;;;;;;4966299;28;20125;-65
2021/10/23 11:08:41;;;;;;;8.05;5.45;;;;;;;;;;4965087;28;20476;-66
2021/10/23 11:11:07;;;;;;;7.33;5.67;;;;;;;;;;4966545;28;20046;-65
2021/10/23 11:13:38;;;;;;;15.82;14.43;;;;;;;;;;4967920;28;20672;-66
2021/10/23 11:16:22;;;;;;;31.33;28.70;;;;;;;;;;4982587;28;20027;-66
2021/10/23 11:18:56;;;;;;;127.45;88.18;;;;;;;;;;4963948;28;20503;-65
2021/10/23 11:21:22;;;;;;;38.25;32.35;;;;;;;;;;4967292;28;20093;-66
2021/10/23 11:23:50;;;;;;;15.40;14.10;;;;;;;;;;4968127;28;20560;-66
2021/10/23 11:26:16;;;;;;;19.80;18.10;;;;;;;;;;4967408;28;20115;-64
2021/10/23 11:28:41;;;;;;;187.05;110.47;;;;;;;;;;4967895;28;20039;-65
2021/10/23 11:31:15;;;;;;;153.80;95.30;;;;;;;;;;4967098;28;20038;-66
2021/10/23 11:33:41;;;;;;;100.45;71.28;;;;;;;;;;4967930;28;20019;-65
2021/10/23 11:36:12;;;;;;;70.40;47.80;;;;;;;;;;4981618;28;20045;-65
2021/10/23 11:38:37;;;;;;;7.63;5.28;;;;;;;;;;4967704;28;20693;-65
2021/10/23 11:41:04;;;;;;;7.37;5.23;;;;;;;;;;4967128;28;20022;-63
2021/10/23 11:43:33;;;;;;;154.55;90.85;;;;;;;;;;4977743;28;20015;-64
2021/10/23 11:46:00;;;;;;;7.93;5.03;;;;;;;;;;4973664;28;20062;-68
2021/10/23 11:48:25;;;;;;;8.50;4.97;;;;;;;;;;4966840;28;20482;-67
2021/10/23 11:50:51;;;;;;;7.30;4.80;;;;;;;;;;4964286;28;20027;-67
2021/10/23 11:53:19;;;;;;;7.43;4.80;;;;;;;;;;4966850;28;20817;-67
2021/10/23 11:55:45;;;;;;;7.50;5.18;;;;;;;;;;4964341;28;20058;-66
2021/10/23 11:58:20;;;;;;;8.05;4.90;;;;;;;;;;4962356;28;20031;-67
2021/10/23 12:00:47;;;;;;;49.42;37.03;;;;;;;;;;4965520;28;20389;-66
2021/10/23 12:03:13;;;;;;;110.93;75.60;;;;;;;;;;4964702;28;20050;-63
2021/10/23 12:05:50;;;;;;;13.88;12.55;;;;;;;;;;4979868;28;20533;-64
2021/10/23 12:08:19;;;;;;;8.90;4.53;;;;;;;;;;4967065;28;20026;-63
2021/10/23 12:11:03;;;;;;;7.63;5.20;;;;;;;;;;4967122;28;20081;-63
2021/10/23 12:13:29;;;;;;;36.75;33.25;;;;;;;;;;4966651;28;20045;-63
2021/10/23 12:16:04;;;;;;;8.77;5.63;;;;;;;;;;4966903;28;20042;-63
2021/10/23 12:18:31;;;;;;;7.10;4.63;;;;;;;;;;4958632;28;20030;-64
2021/10/23 12:21:08;;;;;;;7.63;5.20;;;;;;;;;;4965302;28;20090;-64
2021/10/23 12:23:42;;;;;;;8.15;5.20;;;;;;;;;;4966136;28;20038;-65
2021/10/23 12:26:07;;;;;;;17.27;15.63;;;;;;;;;;4966716;28;20023;-63
2021/10/23 12:28:52;;;;;;;260.45;139.88;;;;;;;;;;4966537;28;20077;-64
2021/10/23 12:31:17;;;;;;;13.10;11.77;;;;;;;;;;4966229;28;20037;-64
2021/10/23 12:33:59;;;;;;;9.48;6.00;;;;;;;;;;4966654;28;20023;-65
2021/10/23 12:36:25;;;;;;;6.80;4.97;;;;;;;;;;4966430;28;20429;-65
2021/10/23 12:38:50;;;;;;;8.63;6.00;;;;;;;;;;4966628;28;20019;-64
2021/10/23 12:41:15;;;;;;;13.47;12.17;;;;;;;;;;4965394;28;20513;-64
2021/10/23 12:43:41;;;;;;;8.55;7.10;;;;;;;;;;4967274;28;20521;-67
2021/10/23 12:46:07;;;;;;;7.93;5.78;;;;;;;;;;4968047;28;20061;-68
2021/10/23 12:48:32;;;;;;;7.22;5.40;;;;;;;;;;4967909;28;20030;-67
2021/10/23 12:50:58;;;;;;;133.30;78.80;;;;;;;;;;4966002;28;20442;-67
2021/10/23 12:53:24;;;;;;;213.40;127.53;;;;;;;;;;4981010;28;20027;-67
2021/10/23 12:55:49;;;;;;;37.25;33.25;;;;;;;;;;4966643;28;20050;-67
2021/10/23 12:58:14;;;;;;;13.57;12.35;;;;;;;;;;4965792;28;20052;-66
2021/10/23 13:00:40;;;;;;;8.20;5.00;;;;;;;;;;4964323;28;20118;-67
2021/10/23 13:03:06;;;;;;;14.40;6.78;;;;;;;;;;4964014;28;20085;-66
2021/10/23 13:05:31;;;;;;;8.75;6.53;;;;;;;;;;4964240;28;20593;-67
2021/10/23 13:07:57;;;;;;;15.80;14.30;;;;;;;;;;4964818;28;20909;-67
2021/10/23 13:10:22;;;;;;;8.77;5.40;;;;;;;;;;4964380;28;20587;-66
2021/10/23 13:12:47;;;;;;;8.95;6.13;;;;;;;;;;4963975;28;20026;-65
2021/10/23 13:15:13;;;;;;;8.93;5.95;;;;;;;;;;4963951;28;20030;-67
2021/10/23 13:17:38;;;;;;;13.10;11.82;;;;;;;;;;4965409;28;20019;-66
2021/10/23 13:20:04;;;;;;;30.07;27.07;;;;;;;;;;4963974;28;20474;-66
2021/10/23 13:22:29;;;;;;;49.53;44.20;;;;;;;;;;4965303;28;20349;-66
2021/10/23 13:24:55;;;;;;;360.27;207.67;;;;;;;;;;4963672;28;20493;-66
2021/10/23 13:27:20;;;;;;;336.00;186.90;;;;;;;;;;4964168;28;20296;-66
2021/10/23 13:29:46;;;;;;;22.27;20.40;;;;;;;;;;4963599;28;20030;-63
2021/10/23 13:32:11;;;;;;;14.82;13.40;;;;;;;;;;4963859;28;20035;-64
2021/10/23 13:34:36;;;;;;;364.50;208.87;;;;;;;;;;4961240;28;20037;-65
2021/10/23 13:37:01;;;;;;;9.33;5.50;;;;;;;;;;4963659;28;20863;-66
2021/10/23 13:39:26;;;;;;;7.43;5.13;;;;;;;;;;4963769;28;20805;-66
2021/10/23 13:41:52;;;;;;;9.50;5.07;;;;;;;;;;4963255;28;20031;-65
2021/10/23 13:44:17;;;;;;;6.75;4.88;;;;;;;;;;4963865;28;20274;-67
2021/10/23 13:46:44;;;;;;;8.30;4.70;;;;;;;;;;4963936;28;20037;-67
2021/10/23 13:49:10;;;;;;;7.75;5.10;;;;;;;;;;4963454;28;20046;-68
2021/10/23 13:51:35;;;;;;;9.20;8.30;;;;;;;;;;4963536;28;20030;-67
2021/10/23 13:54:01;;;;;;;9.63;8.10;;;;;;;;;;4964574;28;20019;-66
2021/10/23 13:56:26;;;;;;;29.40;26.98;;;;;;;;;;4963240;28;20033;-68
2021/10/23 13:58:52;;;;;;;22.07;20.13;;;;;;;;;;4963781;28;20014;-67
2021/10/23 14:01:17;;;;;;;366.40;197.53;;;;;;;;;;4963154;28;20085;-68
2021/10/23 14:03:42;;;;;;;318.33;177.13;;;;;;;;;;4963062;28;20051;-68
2021/10/23 14:06:08;;;;;;;88.70;38.65;;;;;;;;;;4963144;28;20023;-68
2021/10/23 14:08:33;;;;;;;8.87;5.67;;;;;;;;;;4964460;28;20015;-68
2021/10/23 14:10:58;;;;;;;8.63;5.07;;;;;;;;;;4963564;28;20840;-68
2021/10/23 14:13:23;;;;;;;6.75;4.68;;;;;;;;;;4963544;28;20278;-68
2021/10/23 14:15:49;;;;;;;6.95;5.38;;;;;;;;;;4963142;28;20027;-68
2021/10/23 14:18:14;;;;;;;8.40;5.07;;;;;;;;;;4963748;28;20101;-69
2021/10/23 14:20:39;;;;;;;6.63;4.97;;;;;;;;;;4962624;28;20505;-65
2021/10/23 14:23:08;;;;;;;7.07;5.50;;;;;;;;;;4963862;28;20038;-63
2021/10/23 14:25:34;;;;;;;8.97;5.77;;;;;;;;;;4963427;28;20756;-64
2021/10/23 14:28:09;;;;;;;8.25;5.32;;;;;;;;;;4962846;28;20033;-64
2021/10/23 14:30:34;;;;;;;7.97;5.70;;;;;;;;;;4950913;28;20056;-64
2021/10/23 14:32:59;;;;;;;7.83;5.60;;;;;;;;;;4992907;28;20025;-64
2021/10/23 14:35:25;;;;;;;10.15;6.00;;;;;;;;;;4986706;28;20028;-64
2021/10/23 14:37:50;;;;;;;8.70;5.90;;;;;;;;;;4982420;28;20521;-64
2021/10/23 14:40:15;;;;;;;12.23;6.70;;;;;;;;;;4985704;28;20269;-63